sensor_id;sensor_type;location;lat;lon;timestamp;P1;P2;P0
52290;PMS5003;39663;45.432;28.050;2023-03-14T00:00:11;9.0;9.0;
52290;PMS5003;39663;45.432;28.050;2023-03-14T00:00:44;6.0;6.0;
52290;PMS5003;39663;45.432;28.050;2023-03-14T00:01:16;7.0;7.0;
52290;PMS5003;39663;45.432;28.050;2023-03-14T00:01:49;8.0;8.0;
52290;PMS5003;39663;45.432;28.050;2023-03-14T00:02:20;9.0;6.0;
52290;PMS5003;39663;45.432;28.050;2023-03-14T00:02:52;8.0;8.0;
52290;PMS5003;39663;45.432;28.050;2023-03-14T00:03:24;7.0;7.0;
52290;PMS5003;39663;45.432;28.050;2023-03-14T00:03:55;6.0;6.0;
52290;PMS5003;39663;45.432;28.050;2023-03-14T00:04:27;5.0;4.0;
52290;PMS5003;39663;45.432;28.050;2023-03-14T00:04:58;6.0;6.0;
52290;PMS5003;39663;45.432;28.050;2023-03-14T00:05:30;9.0;3.0;
52290;PMS5003;39663;45.432;28.050;2023-03-14T00:06:01;6.0;5.0;
52290;PMS5003;39663;45.432;28.050;2023-03-14T00:06:34;5.0;5.0;
52290;PMS5003;39663;45.432;28.050;2023-03-14T00:07:06;9.0;8.0;
52290;PMS5003;39663;45.432;28.050;2023-03-14T00:07:38;7.0;6.0;
52290;PMS5003;39663;45.432;28.050;2023-03-14T00:08:10;10.0;7.0;
52290;PMS5003;39663;45.432;28.050;2023-03-14T00:08:42;6.0;6.0;
52290;PMS5003;39663;45.432;28.050;2023-03-14T00:09:14;7.0;6.0;
52290;PMS5003;39663;45.432;28.050;2023-03-14T00:09:46;6.0;6.0;
52290;PMS5003;39663;45.432;28.050;2023-03-14T00:10:17;5.0;4.0;
52290;PMS5003;39663;45.432;28.050;2023-03-14T00:10:49;6.0;6.0;
52290;PMS5003;39663;45.432;28.050;2023-03-14T00:11:21;8.0;8.0;
52290;PMS5003;39663;45.432;28.050;2023-03-14T00:11:53;7.0;5.0;
52290;PMS5003;39663;45.432;28.050;2023-03-14T00:12:25;9.0;7.0;
52290;PMS5003;39663;45.432;28.050;2023-03-14T00:12:56;7.0;6.0;
52290;PMS5003;39663;45.432;28.050;2023-03-14T00:13:27;5.0;5.0;
52290;PMS5003;39663;45.432;28.050;2023-03-14T00:13:59;6.0;6.0;
52290;PMS5003;39663;45.432;28.050;2023-03-14T00:14:31;7.0;6.0;
52290;PMS5003;39663;45.432;28.050;2023-03-14T00:15:02;7.0;7.0;
52290;PMS5003;39663;45.432;28.050;2023-03-14T00:15:34;7.0;6.0;
52290;PMS5003;39663;45.432;28.050;2023-03-14T00:16:07;8.0;8.0;
52290;PMS5003;39663;45.432;28.050;2023-03-14T00:16:41;7.0;6.0;
52290;PMS5003;39663;45.432;28.050;2023-03-14T00:17:12;5.0;5.0;
52290;PMS5003;39663;45.432;28.050;2023-03-14T00:17:43;6.0;6.0;
52290;PMS5003;39663;45.432;28.050;2023-03-14T00:18:15;8.0;7.0;
52290;PMS5003;39663;45.432;28.050;2023-03-14T00:18:47;7.0;7.0;
52290;PMS5003;39663;45.432;28.050;2023-03-14T00:19:18;10.0;7.0;
52290;PMS5003;39663;45.432;28.050;2023-03-14T00:19:50;6.0;6.0;
52290;PMS5003;39663;45.432;28.050;2023-03-14T00:20:21;10.0;8.0;
52290;PMS5003;39663;45.432;28.050;2023-03-14T00:20:53;8.0;7.0;
52290;PMS5003;39663;45.432;28.050;2023-03-14T00:21:24;6.0;6.0;
52290;PMS5003;39663;45.432;28.050;2023-03-14T00:21:55;7.0;6.0;
52290;PMS5003;39663;45.432;28.050;2023-03-14T00:22:27;9.0;7.0;
52290;PMS5003;39663;45.432;28.050;2023-03-14T00:22:58;8.0;8.0;
52290;PMS5003;39663;45.432;28.050;2023-03-14T00:23:31;8.0;6.0;
52290;PMS5003;39663;45.432;28.050;2023-03-14T00:24:04;8.0;7.0;
52290;PMS5003;39663;45.432;28.050;2023-03-14T00:24:36;12.0;10.0;
52290;PMS5003;39663;45.432;28.050;2023-03-14T00:25:08;8.0;8.0;
52290;PMS5003;39663;45.432;28.050;2023-03-14T00:25:40;7.0;6.0;
52290;PMS5003;39663;45.432;28.050;2023-03-14T00:26:13;9.0;7.0;
52290;PMS5003;39663;45.432;28.050;2023-03-14T00:26:46;9.0;8.0;
52290;PMS5003;39663;45.432;28.050;2023-03-14T00:27:18;9.0;7.0;
52290;PMS5003;39663;45.432;28.050;2023-03-14T00:27:50;8.0;8.0;
52290;PMS5003;39663;45.432;28.050;2023-03-14T00:28:21;9.0;7.0;
52290;PMS5003;39663;45.432;28.050;2023-03-14T00:28:53;6.0;6.0;
52290;PMS5003;39663;45.432;28.050;2023-03-14T00:29:25;6.0;6.0;
52290;PMS5003;39663;45.432;28.050;2023-03-14T00:29:57;7.0;7.0;
52290;PMS5003;39663;45.432;28.050;2023-03-14T00:30:28;9.0;8.0;
52290;PMS5003;39663;45.432;28.050;2023-03-14T00:31:01;9.0;7.0;
52290;PMS5003;39663;45.432;28.050;2023-03-14T00:31:34;9.0;8.0;
52290;PMS5003;39663;45.432;28.050;2023-03-14T00:32:05;8.0;8.0;
52290;PMS5003;39663;45.432;28.050;2023-03-14T00:32:37;9.0;9.0;
52290;PMS5003;39663;45.432;28.050;2023-03-14T00:33:08;7.0;7.0;
52290;PMS5003;39663;45.432;28.050;2023-03-14T00:33:39;8.0;8.0;
52290;PMS5003;39663;45.432;28.050;2023-03-14T00:34:11;6.0;6.0;
52290;PMS5003;39663;45.432;28.050;2023-03-14T00:34:42;7.0;7.0;
52290;PMS5003;39663;45.432;28.050;2023-03-14T00:35:14;8.0;8.0;
52290;PMS5003;39663;45.432;28.050;2023-03-14T00:35:51;8.0;8.0;
52290;PMS5003;39663;45.432;28.050;2023-03-14T00:36:24;8.0;8.0;
52290;PMS5003;39663;45.432;28.050;2023-03-14T00:36:55;7.0;7.0;
52290;PMS5003;39663;45.432;28.050;2023-03-14T00:37:27;7.0;7.0;
52290;PMS5003;39663;45.432;28.050;2023-03-14T00:37:59;6.0;6.0;
52290;PMS5003;39663;45.432;28.050;2023-03-14T00:38:31;10.0;8.0;
52290;PMS5003;39663;45.432;28.050;2023-03-14T00:39:03;8.0;8.0;
52290;PMS5003;39663;45.432;28.050;2023-03-14T00:39:35;6.0;6.0;
52290;PMS5003;39663;45.432;28.050;2023-03-14T00:40:07;7.0;7.0;
52290;PMS5003;39663;45.432;28.050;2023-03-14T00:40:40;8.0;8.0;
52290;PMS5003;39663;45.432;28.050;2023-03-14T00:41:12;9.0;7.0;
52290;PMS5003;39663;45.432;28.050;2023-03-14T00:41:44;13.0;9.0;
52290;PMS5003;39663;45.432;28.050;2023-03-14T00:42:16;6.0;6.0;
52290;PMS5003;39663;45.432;28.050;2023-03-14T00:42:47;9.0;8.0;
52290;PMS5003;39663;45.432;28.050;2023-03-14T00:43:19;7.0;7.0;
52290;PMS5003;39663;45.432;28.050;2023-03-14T00:43:51;9.0;8.0;
52290;PMS5003;39663;45.432;28.050;2023-03-14T00:44:23;9.0;8.0;
52290;PMS5003;39663;45.432;28.050;2023-03-14T00:44:54;7.0;5.0;
52290;PMS5003;39663;45.432;28.050;2023-03-14T00:45:26;9.0;9.0;
52290;PMS5003;39663;45.432;28.050;2023-03-14T00:45:57;8.0;8.0;
52290;PMS5003;39663;45.432;28.050;2023-03-14T00:46:28;6.0;6.0;
52290;PMS5003;39663;45.432;28.050;2023-03-14T00:47:00;7.0;6.0;
52290;PMS5003;39663;45.432;28.050;2023-03-14T00:47:32;5.0;5.0;
52290;PMS5003;39663;45.432;28.050;2023-03-14T00:48:03;10.0;9.0;
52290;PMS5003;39663;45.432;28.050;2023-03-14T00:48:35;9.0;6.0;
52290;PMS5003;39663;45.432;28.050;2023-03-14T00:49:07;7.0;7.0;
52290;PMS5003;39663;45.432;28.050;2023-03-14T00:49:38;9.0;7.0;
52290;PMS5003;39663;45.432;28.050;2023-03-14T00:50:10;10.0;8.0;
52290;PMS5003;39663;45.432;28.050;2023-03-14T00:50:42;8.0;8.0;
52290;PMS5003;39663;45.432;28.050;2023-03-14T00:51:13;8.0;7.0;
52290;PMS5003;39663;45.432;28.050;2023-03-14T00:51:45;8.0;7.0;
52290;PMS5003;39663;45.432;28.050;2023-03-14T00:52:16;8.0;6.0;
52290;PMS5003;39663;45.432;28.050;2023-03-14T00:52:47;8.0;7.0;
52290;PMS5003;39663;45.432;28.050;2023-03-14T00:53:19;7.0;7.0;
52290;PMS5003;39663;45.432;28.050;2023-03-14T00:53:50;7.0;6.0;
52290;PMS5003;39663;45.432;28.050;2023-03-14T00:54:22;7.0;7.0;
52290;PMS5003;39663;45.432;28.050;2023-03-14T00:54:54;6.0;5.0;
52290;PMS5003;39663;45.432;28.050;2023-03-14T00:55:26;7.0;7.0;
52290;PMS5003;39663;45.432;28.050;2023-03-14T00:56:01;9.0;6.0;
52290;PMS5003;39663;45.432;28.050;2023-03-14T00:56:33;11.0;11.0;
52290;PMS5003;39663;45.432;28.050;2023-03-14T00:57:04;8.0;7.0;
52290;PMS5003;39663;45.432;28.050;2023-03-14T00:57:36;13.0;9.0;
52290;PMS5003;39663;45.432;28.050;2023-03-14T00:58:07;11.0;7.0;
52290;PMS5003;39663;45.432;28.050;2023-03-14T00:58:39;7.0;7.0;
52290;PMS5003;39663;45.432;28.050;2023-03-14T00:59:11;8.0;8.0;
52290;PMS5003;39663;45.432;28.050;2023-03-14T00:59:42;8.0;6.0;
52290;PMS5003;39663;45.432;28.050;2023-03-14T01:00:14;8.0;8.0;
52290;PMS5003;39663;45.432;28.050;2023-03-14T01:00:45;8.0;7.0;
52290;PMS5003;39663;45.432;28.050;2023-03-14T01:01:17;6.0;6.0;
52290;PMS5003;39663;45.432;28.050;2023-03-14T01:01:49;7.0;7.0;
52290;PMS5003;39663;45.432;28.050;2023-03-14T01:02:20;7.0;6.0;
52290;PMS5003;39663;45.432;28.050;2023-03-14T01:02:52;6.0;6.0;
52290;PMS5003;39663;45.432;28.050;2023-03-14T01:03:23;8.0;8.0;
52290;PMS5003;39663;45.432;28.050;2023-03-14T01:03:55;6.0;6.0;
52290;PMS5003;39663;45.432;28.050;2023-03-14T01:04:27;7.0;7.0;
52290;PMS5003;39663;45.432;28.050;2023-03-14T01:04:58;6.0;6.0;
52290;PMS5003;39663;45.432;28.050;2023-03-14T01:05:30;9.0;6.0;
52290;PMS5003;39663;45.432;28.050;2023-03-14T01:06:09;7.0;7.0;
52290;PMS5003;39663;45.432;28.050;2023-03-14T01:06:43;6.0;6.0;
52290;PMS5003;39663;45.432;28.050;2023-03-14T01:07:14;9.0;8.0;
52290;PMS5003;39663;45.432;28.050;2023-03-14T01:07:46;9.0;7.0;
52290;PMS5003;39663;45.432;28.050;2023-03-14T01:08:17;10.0;10.0;
52290;PMS5003;39663;45.432;28.050;2023-03-14T01:08:49;8.0;8.0;
52290;PMS5003;39663;45.432;28.050;2023-03-14T01:09:21;7.0;7.0;
52290;PMS5003;39663;45.432;28.050;2023-03-14T01:09:53;5.0;4.0;
52290;PMS5003;39663;45.432;28.050;2023-03-14T01:10:24;8.0;8.0;
52290;PMS5003;39663;45.432;28.050;2023-03-14T01:10:56;7.0;7.0;
52290;PMS5003;39663;45.432;28.050;2023-03-14T01:11:28;7.0;7.0;
52290;PMS5003;39663;45.432;28.050;2023-03-14T01:12:01;7.0;7.0;
52290;PMS5003;39663;45.432;28.050;2023-03-14T01:12:33;7.0;7.0;
52290;PMS5003;39663;45.432;28.050;2023-03-14T01:13:04;6.0;6.0;
52290;PMS5003;39663;45.432;28.050;2023-03-14T01:13:36;7.0;7.0;
52290;PMS5003;39663;45.432;28.050;2023-03-14T01:14:08;8.0;7.0;
52290;PMS5003;39663;45.432;28.050;2023-03-14T01:14:41;7.0;6.0;
52290;PMS5003;39663;45.432;28.050;2023-03-14T01:15:12;7.0;7.0;
52290;PMS5003;39663;45.432;28.050;2023-03-14T01:15:44;6.0;6.0;
52290;PMS5003;39663;45.432;28.050;2023-03-14T01:16:16;7.0;7.0;
52290;PMS5003;39663;45.432;28.050;2023-03-14T01:16:48;9.0;8.0;
52290;PMS5003;39663;45.432;28.050;2023-03-14T01:17:20;8.0;8.0;
52290;PMS5003;39663;45.432;28.050;2023-03-14T01:17:51;9.0;9.0;
52290;PMS5003;39663;45.432;28.050;2023-03-14T01:18:23;8.0;7.0;
52290;PMS5003;39663;45.432;28.050;2023-03-14T01:18:54;8.0;8.0;
52290;PMS5003;39663;45.432;28.050;2023-03-14T01:19:26;8.0;7.0;
52290;PMS5003;39663;45.432;28.050;2023-03-14T01:19:59;9.0;8.0;
52290;PMS5003;39663;45.432;28.050;2023-03-14T01:20:31;8.0;8.0;
52290;PMS5003;39663;45.432;28.050;2023-03-14T01:21:03;10.0;8.0;
52290;PMS5003;39663;45.432;28.050;2023-03-14T01:21:42;9.0;7.0;
52290;PMS5003;39663;45.432;28.050;2023-03-14T01:22:14;7.0;7.0;
52290;PMS5003;39663;45.432;28.050;2023-03-14T01:22:46;13.0;10.0;
52290;PMS5003;39663;45.432;28.050;2023-03-14T01:23:18;8.0;8.0;
52290;PMS5003;39663;45.432;28.050;2023-03-14T01:23:50;7.0;7.0;
52290;PMS5003;39663;45.432;28.050;2023-03-14T01:24:23;8.0;7.0;
52290;PMS5003;39663;45.432;28.050;2023-03-14T01:24:55;8.0;7.0;
52290;PMS5003;39663;45.432;28.050;2023-03-14T01:25:26;8.0;7.0;
52290;PMS5003;39663;45.432;28.050;2023-03-14T01:25:58;9.0;8.0;
52290;PMS5003;39663;45.432;28.050;2023-03-14T01:26:31;9.0;6.0;
52290;PMS5003;39663;45.432;28.050;2023-03-14T01:27:03;7.0;6.0;
52290;PMS5003;39663;45.432;28.050;2023-03-14T01:27:35;7.0;7.0;
52290;PMS5003;39663;45.432;28.050;2023-03-14T01:28:07;8.0;8.0;
52290;PMS5003;39663;45.432;28.050;2023-03-14T01:28:38;8.0;6.0;
52290;PMS5003;39663;45.432;28.050;2023-03-14T01:29:10;8.0;7.0;
52290;PMS5003;39663;45.432;28.050;2023-03-14T01:29:41;7.0;7.0;
52290;PMS5003;39663;45.432;28.050;2023-03-14T01:30:13;9.0;8.0;
52290;PMS5003;39663;45.432;28.050;2023-03-14T01:30:45;7.0;5.0;
52290;PMS5003;39663;45.432;28.050;2023-03-14T01:31:16;6.0;6.0;
52290;PMS5003;39663;45.432;28.050;2023-03-14T01:31:48;7.0;7.0;
52290;PMS5003;39663;45.432;28.050;2023-03-14T01:32:20;9.0;8.0;
52290;PMS5003;39663;45.432;28.050;2023-03-14T01:32:51;5.0;5.0;
52290;PMS5003;39663;45.432;28.050;2023-03-14T01:33:22;9.0;6.0;
52290;PMS5003;39663;45.432;28.050;2023-03-14T01:33:54;6.0;6.0;
52290;PMS5003;39663;45.432;28.050;2023-03-14T01:34:25;8.0;8.0;
52290;PMS5003;39663;45.432;28.050;2023-03-14T01:34:57;9.0;8.0;
52290;PMS5003;39663;45.432;28.050;2023-03-14T01:35:28;6.0;6.0;
52290;PMS5003;39663;45.432;28.050;2023-03-14T01:36:00;7.0;6.0;
52290;PMS5003;39663;45.432;28.050;2023-03-14T01:36:32;6.0;6.0;
52290;PMS5003;39663;45.432;28.050;2023-03-14T01:37:03;9.0;8.0;
52290;PMS5003;39663;45.432;28.050;2023-03-14T01:37:35;7.0;7.0;
52290;PMS5003;39663;45.432;28.050;2023-03-14T01:38:06;6.0;6.0;
52290;PMS5003;39663;45.432;28.050;2023-03-14T01:38:38;5.0;5.0;
52290;PMS5003;39663;45.432;28.050;2023-03-14T01:39:11;5.0;5.0;
52290;PMS5003;39663;45.432;28.050;2023-03-14T01:39:42;7.0;7.0;
52290;PMS5003;39663;45.432;28.050;2023-03-14T01:40:14;6.0;6.0;
52290;PMS5003;39663;45.432;28.050;2023-03-14T01:40:45;9.0;7.0;
52290;PMS5003;39663;45.432;28.050;2023-03-14T01:41:18;7.0;6.0;
52290;PMS5003;39663;45.432;28.050;2023-03-14T01:41:50;5.0;4.0;
52290;PMS5003;39663;45.432;28.050;2023-03-14T01:42:21;6.0;6.0;
52290;PMS5003;39663;45.432;28.050;2023-03-14T01:42:54;7.0;6.0;
52290;PMS5003;39663;45.432;28.050;2023-03-14T01:43:27;8.0;6.0;
52290;PMS5003;39663;45.432;28.050;2023-03-14T01:43:58;8.0;8.0;
52290;PMS5003;39663;45.432;28.050;2023-03-14T01:44:45;11.0;9.0;
52290;PMS5003;39663;45.432;28.050;2023-03-14T01:45:53;8.0;6.0;
52290;PMS5003;39663;45.432;28.050;2023-03-14T01:46:48;14.0;13.0;
52290;PMS5003;39663;45.432;28.050;2023-03-14T01:47:20;21.0;18.0;
52290;PMS5003;39663;45.432;28.050;2023-03-14T01:47:52;17.0;17.0;
52290;PMS5003;39663;45.432;28.050;2023-03-14T01:48:23;12.0;12.0;
52290;PMS5003;39663;45.432;28.050;2023-03-14T01:48:57;16.0;16.0;
52290;PMS5003;39663;45.432;28.050;2023-03-14T01:49:33;21.0;21.0;
52290;PMS5003;39663;45.432;28.050;2023-03-14T01:50:08;27.0;27.0;
52290;PMS5003;39663;45.432;28.050;2023-03-14T01:50:42;36.0;34.0;
52290;PMS5003;39663;45.432;28.050;2023-03-14T01:51:15;22.0;19.0;
52290;PMS5003;39663;45.432;28.050;2023-03-14T01:51:51;21.0;19.0;
52290;PMS5003;39663;45.432;28.050;2023-03-14T01:52:28;30.0;26.0;
52290;PMS5003;39663;45.432;28.050;2023-03-14T01:53:02;25.0;19.0;
52290;PMS5003;39663;45.432;28.050;2023-03-14T01:53:34;22.0;21.0;
52290;PMS5003;39663;45.432;28.050;2023-03-14T01:54:10;37.0;29.0;
52290;PMS5003;39663;45.432;28.050;2023-03-14T01:54:48;36.0;31.0;
52290;PMS5003;39663;45.432;28.050;2023-03-14T01:55:23;33.0;31.0;
52290;PMS5003;39663;45.432;28.050;2023-03-14T01:55:56;36.0;33.0;
52290;PMS5003;39663;45.432;28.050;2023-03-14T01:56:28;34.0;27.0;
52290;PMS5003;39663;45.432;28.050;2023-03-14T01:57:02;33.0;26.0;
52290;PMS5003;39663;45.432;28.050;2023-03-14T01:57:37;52.0;45.0;
52290;PMS5003;39663;45.432;28.050;2023-03-14T01:58:11;26.0;26.0;
52290;PMS5003;39663;45.432;28.050;2023-03-14T01:58:44;34.0;29.0;
52290;PMS5003;39663;45.432;28.050;2023-03-14T01:59:18;52.0;47.0;
52290;PMS5003;39663;45.432;28.050;2023-03-14T01:59:51;71.0;59.0;
52290;PMS5003;39663;45.432;28.050;2023-03-14T02:00:26;42.0;40.0;
52290;PMS5003;39663;45.432;28.050;2023-03-14T02:00:58;56.0;48.0;
52290;PMS5003;39663;45.432;28.050;2023-03-14T02:01:29;46.0;42.0;
52290;PMS5003;39663;45.432;28.050;2023-03-14T02:02:01;40.0;36.0;
52290;PMS5003;39663;45.432;28.050;2023-03-14T02:02:35;36.0;33.0;
52290;PMS5003;39663;45.432;28.050;2023-03-14T02:03:07;43.0;42.0;
52290;PMS5003;39663;45.432;28.050;2023-03-14T02:03:44;46.0;40.0;
52290;PMS5003;39663;45.432;28.050;2023-03-14T02:04:20;43.0;40.0;
52290;PMS5003;39663;45.432;28.050;2023-03-14T02:04:53;42.0;36.0;
52290;PMS5003;39663;45.432;28.050;2023-03-14T02:05:27;38.0;37.0;
52290;PMS5003;39663;45.432;28.050;2023-03-14T02:06:03;36.0;34.0;
52290;PMS5003;39663;45.432;28.050;2023-03-14T02:06:41;35.0;34.0;
52290;PMS5003;39663;45.432;28.050;2023-03-14T02:07:20;30.0;29.0;
52290;PMS5003;39663;45.432;28.050;2023-03-14T02:07:58;32.0;28.0;
52290;PMS5003;39663;45.432;28.050;2023-03-14T02:08:31;37.0;32.0;
52290;PMS5003;39663;45.432;28.050;2023-03-14T02:09:03;40.0;34.0;
52290;PMS5003;39663;45.432;28.050;2023-03-14T02:09:35;41.0;35.0;
52290;PMS5003;39663;45.432;28.050;2023-03-14T02:10:09;30.0;29.0;
52290;PMS5003;39663;45.432;28.050;2023-03-14T02:10:41;27.0;24.0;
52290;PMS5003;39663;45.432;28.050;2023-03-14T02:11:14;39.0;35.0;
52290;PMS5003;39663;45.432;28.050;2023-03-14T02:11:46;30.0;28.0;
52290;PMS5003;39663;45.432;28.050;2023-03-14T02:12:19;27.0;23.0;
52290;PMS5003;39663;45.432;28.050;2023-03-14T02:12:52;26.0;22.0;
52290;PMS5003;39663;45.432;28.050;2023-03-14T02:13:26;33.0;29.0;
52290;PMS5003;39663;45.432;28.050;2023-03-14T02:13:58;24.0;23.0;
52290;PMS5003;39663;45.432;28.050;2023-03-14T02:14:32;31.0;28.0;
52290;PMS5003;39663;45.432;28.050;2023-03-14T02:15:06;28.0;25.0;
52290;PMS5003;39663;45.432;28.050;2023-03-14T02:15:38;34.0;31.0;
52290;PMS5003;39663;45.432;28.050;2023-03-14T02:16:10;34.0;29.0;
52290;PMS5003;39663;45.432;28.050;2023-03-14T02:16:42;28.0;25.0;
52290;PMS5003;39663;45.432;28.050;2023-03-14T02:17:13;27.0;24.0;
52290;PMS5003;39663;45.432;28.050;2023-03-14T02:17:46;33.0;31.0;
52290;PMS5003;39663;45.432;28.050;2023-03-14T02:18:19;28.0;22.0;
52290;PMS5003;39663;45.432;28.050;2023-03-14T02:18:50;27.0;25.0;
52290;PMS5003;39663;45.432;28.050;2023-03-14T02:19:25;30.0;25.0;
52290;PMS5003;39663;45.432;28.050;2023-03-14T02:20:09;34.0;29.0;
52290;PMS5003;39663;45.432;28.050;2023-03-14T02:20:55;29.0;25.0;
52290;PMS5003;39663;45.432;28.050;2023-03-14T02:21:34;37.0;33.0;
52290;PMS5003;39663;45.432;28.050;2023-03-14T02:22:15;28.0;23.0;
52290;PMS5003;39663;45.432;28.050;2023-03-14T02:22:47;45.0;41.0;
52290;PMS5003;39663;45.432;28.050;2023-03-14T02:23:20;50.0;46.0;
52290;PMS5003;39663;45.432;28.050;2023-03-14T02:24:05;35.0;35.0;
52290;PMS5003;39663;45.432;28.050;2023-03-14T02:24:41;36.0;31.0;
52290;PMS5003;39663;45.432;28.050;2023-03-14T02:25:22;35.0;34.0;
52290;PMS5003;39663;45.432;28.050;2023-03-14T02:26:03;57.0;56.0;
52290;PMS5003;39663;45.432;28.050;2023-03-14T02:26:41;69.0;63.0;
52290;PMS5003;39663;45.432;28.050;2023-03-14T02:27:31;41.0;39.0;
52290;PMS5003;39663;45.432;28.050;2023-03-14T02:28:04;38.0;34.0;
52290;PMS5003;39663;45.432;28.050;2023-03-14T02:28:35;55.0;53.0;
52290;PMS5003;39663;45.432;28.050;2023-03-14T02:29:07;33.0;29.0;
52290;PMS5003;39663;45.432;28.050;2023-03-14T02:29:40;55.0;54.0;
52290;PMS5003;39663;45.432;28.050;2023-03-14T02:30:18;37.0;35.0;
52290;PMS5003;39663;45.432;28.050;2023-03-14T02:30:51;39.0;35.0;
52290;PMS5003;39663;45.432;28.050;2023-03-14T02:31:23;38.0;34.0;
52290;PMS5003;39663;45.432;28.050;2023-03-14T02:31:54;47.0;46.0;
52290;PMS5003;39663;45.432;28.050;2023-03-14T02:32:27;39.0;38.0;
52290;PMS5003;39663;45.432;28.050;2023-03-14T02:33:01;41.0;41.0;
52290;PMS5003;39663;45.432;28.050;2023-03-14T02:33:35;38.0;38.0;
52290;PMS5003;39663;45.432;28.050;2023-03-14T02:34:08;39.0;37.0;
52290;PMS5003;39663;45.432;28.050;2023-03-14T02:34:40;40.0;36.0;
52290;PMS5003;39663;45.432;28.050;2023-03-14T02:35:15;37.0;34.0;
52290;PMS5003;39663;45.432;28.050;2023-03-14T02:35:51;34.0;33.0;
52290;PMS5003;39663;45.432;28.050;2023-03-14T02:36:26;31.0;28.0;
52290;PMS5003;39663;45.432;28.050;2023-03-14T02:36:57;40.0;32.0;
52290;PMS5003;39663;45.432;28.050;2023-03-14T02:37:32;36.0;34.0;
52290;PMS5003;39663;45.432;28.050;2023-03-14T02:38:09;32.0;29.0;
52290;PMS5003;39663;45.432;28.050;2023-03-14T02:38:50;34.0;33.0;
52290;PMS5003;39663;45.432;28.050;2023-03-14T02:39:27;35.0;30.0;
52290;PMS5003;39663;45.432;28.050;2023-03-14T02:40:06;27.0;26.0;
52290;PMS5003;39663;45.432;28.050;2023-03-14T02:40:38;27.0;26.0;
52290;PMS5003;39663;45.432;28.050;2023-03-14T02:41:10;31.0;30.0;
52290;PMS5003;39663;45.432;28.050;2023-03-14T02:41:41;28.0;22.0;
52290;PMS5003;39663;45.432;28.050;2023-03-14T02:42:13;27.0;23.0;
52290;PMS5003;39663;45.432;28.050;2023-03-14T02:42:45;24.0;24.0;
52290;PMS5003;39663;45.432;28.050;2023-03-14T02:43:16;21.0;19.0;
52290;PMS5003;39663;45.432;28.050;2023-03-14T02:43:48;23.0;23.0;
52290;PMS5003;39663;45.432;28.050;2023-03-14T02:44:19;20.0;20.0;
52290;PMS5003;39663;45.432;28.050;2023-03-14T02:44:52;26.0;26.0;
52290;PMS5003;39663;45.432;28.050;2023-03-14T02:45:31;30.0;26.0;
52290;PMS5003;39663;45.432;28.050;2023-03-14T02:46:07;28.0;23.0;
52290;PMS5003;39663;45.432;28.050;2023-03-14T02:46:43;22.0;22.0;
52290;PMS5003;39663;45.432;28.050;2023-03-14T02:47:14;19.0;18.0;
52290;PMS5003;39663;45.432;28.050;2023-03-14T02:47:46;18.0;17.0;
52290;PMS5003;39663;45.432;28.050;2023-03-14T02:48:24;27.0;25.0;
52290;PMS5003;39663;45.432;28.050;2023-03-14T02:48:59;18.0;17.0;
52290;PMS5003;39663;45.432;28.050;2023-03-14T02:49:34;21.0;18.0;
52290;PMS5003;39663;45.432;28.050;2023-03-14T02:50:06;17.0;17.0;
52290;PMS5003;39663;45.432;28.050;2023-03-14T02:50:40;21.0;21.0;
52290;PMS5003;39663;45.432;28.050;2023-03-14T02:51:12;14.0;14.0;
52290;PMS5003;39663;45.432;28.050;2023-03-14T02:51:45;17.0;17.0;
52290;PMS5003;39663;45.432;28.050;2023-03-14T02:52:17;17.0;16.0;
52290;PMS5003;39663;45.432;28.050;2023-03-14T02:52:48;15.0;15.0;
52290;PMS5003;39663;45.432;28.050;2023-03-14T02:53:21;15.0;15.0;
52290;PMS5003;39663;45.432;28.050;2023-03-14T02:53:56;14.0;14.0;
52290;PMS5003;39663;45.432;28.050;2023-03-14T02:54:27;17.0;14.0;
52290;PMS5003;39663;45.432;28.050;2023-03-14T02:54:59;13.0;13.0;
52290;PMS5003;39663;45.432;28.050;2023-03-14T02:55:30;16.0;16.0;
52290;PMS5003;39663;45.432;28.050;2023-03-14T02:56:02;17.0;15.0;
52290;PMS5003;39663;45.432;28.050;2023-03-14T02:56:34;20.0;19.0;
52290;PMS5003;39663;45.432;28.050;2023-03-14T02:57:06;11.0;11.0;
52290;PMS5003;39663;45.432;28.050;2023-03-14T02:57:37;18.0;16.0;
52290;PMS5003;39663;45.432;28.050;2023-03-14T02:58:09;19.0;14.0;
52290;PMS5003;39663;45.432;28.050;2023-03-14T02:58:40;16.0;16.0;
52290;PMS5003;39663;45.432;28.050;2023-03-14T02:59:12;19.0;16.0;
52290;PMS5003;39663;45.432;28.050;2023-03-14T02:59:43;19.0;16.0;
52290;PMS5003;39663;45.432;28.050;2023-03-14T03:00:15;20.0;17.0;
52290;PMS5003;39663;45.432;28.050;2023-03-14T03:00:47;15.0;15.0;
52290;PMS5003;39663;45.432;28.050;2023-03-14T03:01:19;16.0;13.0;
52290;PMS5003;39663;45.432;28.050;2023-03-14T03:01:50;19.0;16.0;
52290;PMS5003;39663;45.432;28.050;2023-03-14T03:02:22;13.0;13.0;
52290;PMS5003;39663;45.432;28.050;2023-03-14T03:02:53;18.0;13.0;
52290;PMS5003;39663;45.432;28.050;2023-03-14T03:03:25;18.0;17.0;
52290;PMS5003;39663;45.432;28.050;2023-03-14T03:03:56;18.0;17.0;
52290;PMS5003;39663;45.432;28.050;2023-03-14T03:04:28;18.0;17.0;
52290;PMS5003;39663;45.432;28.050;2023-03-14T03:04:59;14.0;14.0;
52290;PMS5003;39663;45.432;28.050;2023-03-14T03:05:31;18.0;15.0;
52290;PMS5003;39663;45.432;28.050;2023-03-14T03:06:03;14.0;14.0;
52290;PMS5003;39663;45.432;28.050;2023-03-14T03:06:34;18.0;16.0;
52290;PMS5003;39663;45.432;28.050;2023-03-14T03:07:06;17.0;17.0;
52290;PMS5003;39663;45.432;28.050;2023-03-14T03:07:38;14.0;13.0;
52290;PMS5003;39663;45.432;28.050;2023-03-14T03:08:09;14.0;12.0;
52290;PMS5003;39663;45.432;28.050;2023-03-14T03:08:41;15.0;13.0;
52290;PMS5003;39663;45.432;28.050;2023-03-14T03:09:12;17.0;15.0;
52290;PMS5003;39663;45.432;28.050;2023-03-14T03:09:44;13.0;12.0;
52290;PMS5003;39663;45.432;28.050;2023-03-14T03:10:16;16.0;14.0;
52290;PMS5003;39663;45.432;28.050;2023-03-14T03:10:48;16.0;15.0;
52290;PMS5003;39663;45.432;28.050;2023-03-14T03:11:20;25.0;19.0;
52290;PMS5003;39663;45.432;28.050;2023-03-14T03:11:52;17.0;13.0;
52290;PMS5003;39663;45.432;28.050;2023-03-14T03:12:23;11.0;10.0;
52290;PMS5003;39663;45.432;28.050;2023-03-14T03:12:55;14.0;12.0;
52290;PMS5003;39663;45.432;28.050;2023-03-14T03:13:26;10.0;10.0;
52290;PMS5003;39663;45.432;28.050;2023-03-14T03:13:58;17.0;14.0;
52290;PMS5003;39663;45.432;28.050;2023-03-14T03:14:29;21.0;17.0;
52290;PMS5003;39663;45.432;28.050;2023-03-14T03:15:00;13.0;13.0;
52290;PMS5003;39663;45.432;28.050;2023-03-14T03:15:32;14.0;14.0;
52290;PMS5003;39663;45.432;28.050;2023-03-14T03:16:04;19.0;17.0;
52290;PMS5003;39663;45.432;28.050;2023-03-14T03:16:36;19.0;17.0;
52290;PMS5003;39663;45.432;28.050;2023-03-14T03:17:08;11.0;11.0;
52290;PMS5003;39663;45.432;28.050;2023-03-14T03:17:39;15.0;14.0;
52290;PMS5003;39663;45.432;28.050;2023-03-14T03:18:11;13.0;13.0;
52290;PMS5003;39663;45.432;28.050;2023-03-14T03:18:43;13.0;13.0;
52290;PMS5003;39663;45.432;28.050;2023-03-14T03:19:14;13.0;13.0;
52290;PMS5003;39663;45.432;28.050;2023-03-14T03:19:46;16.0;16.0;
52290;PMS5003;39663;45.432;28.050;2023-03-14T03:20:17;15.0;13.0;
52290;PMS5003;39663;45.432;28.050;2023-03-14T03:20:49;12.0;12.0;
52290;PMS5003;39663;45.432;28.050;2023-03-14T03:21:20;11.0;10.0;
52290;PMS5003;39663;45.432;28.050;2023-03-14T03:21:52;13.0;13.0;
52290;PMS5003;39663;45.432;28.050;2023-03-14T03:22:23;12.0;11.0;
52290;PMS5003;39663;45.432;28.050;2023-03-14T03:22:55;19.0;15.0;
52290;PMS5003;39663;45.432;28.050;2023-03-14T03:23:26;16.0;16.0;
52290;PMS5003;39663;45.432;28.050;2023-03-14T03:23:58;15.0;15.0;
52290;PMS5003;39663;45.432;28.050;2023-03-14T03:24:29;15.0;14.0;